sensor_id;sensor_type;location;lat;lon;timestamp;temperature;humidity
18456;DHT22;9357;49.900;8.208;2024-02-28T00:00:28;6.40;99.90
18456;DHT22;9357;49.900;8.208;2024-02-28T00:02:00;6.40;99.90
18456;DHT22;9357;49.900;8.208;2024-02-28T00:03:33;6.30;99.90
18456;DHT22;9357;49.900;8.208;2024-02-28T00:05:07;6.30;99.90
18456;DHT22;9357;49.900;8.208;2024-02-28T00:06:40;6.30;99.90
18456;DHT22;9357;49.900;8.208;2024-02-28T00:08:12;6.30;99.90
18456;DHT22;9357;49.900;8.208;2024-02-28T00:09:45;6.30;99.90
18456;DHT22;9357;49.900;8.208;2024-02-28T00:11:17;6.30;99.90
18456;DHT22;9357;49.900;8.208;2024-02-28T00:12:49;6.30;99.90
18456;DHT22;9357;49.900;8.208;2024-02-28T00:14:21;6.20;99.90
18456;DHT22;9357;49.900;8.208;2024-02-28T00:15:54;6.20;99.90
18456;DHT22;9357;49.900;8.208;2024-02-28T00:17:26;6.20;99.90
18456;DHT22;9357;49.900;8.208;2024-02-28T00:18:59;6.10;99.90
18456;DHT22;9357;49.900;8.208;2024-02-28T00:20:32;6.10;99.90
18456;DHT22;9357;49.900;8.208;2024-02-28T00:22:05;6.10;99.90
18456;DHT22;9357;49.900;8.208;2024-02-28T00:23:37;6.10;99.90
18456;DHT22;9357;49.900;8.208;2024-02-28T00:25:10;6.10;99.90
18456;DHT22;9357;49.900;8.208;2024-02-28T00:26:43;6.00;99.90
18456;DHT22;9357;49.900;8.208;2024-02-28T00:28:16;6.00;99.90
18456;DHT22;9357;49.900;8.208;2024-02-28T00:29:49;6.00;99.90
18456;DHT22;9357;49.900;8.208;2024-02-28T00:31:20;6.00;99.90
18456;DHT22;9357;49.900;8.208;2024-02-28T00:32:54;6.00;99.90
18456;DHT22;9357;49.900;8.208;2024-02-28T00:34:25;6.00;99.90
18456;DHT22;9357;49.900;8.208;2024-02-28T00:35:59;6.00;99.90
18456;DHT22;9357;49.900;8.208;2024-02-28T00:37:31;5.90;99.90
18456;DHT22;9357;49.900;8.208;2024-02-28T00:39:04;5.90;99.90
18456;DHT22;9357;49.900;8.208;2024-02-28T00:40:36;5.90;99.90
18456;DHT22;9357;49.900;8.208;2024-02-28T00:42:09;5.90;99.90
18456;DHT22;9357;49.900;8.208;2024-02-28T00:43:41;5.90;99.90
18456;DHT22;9357;49.900;8.208;2024-02-28T00:45:14;5.80;99.90
18456;DHT22;9357;49.900;8.208;2024-02-28T00:46:46;5.90;99.90
18456;DHT22;9357;49.900;8.208;2024-02-28T00:48:19;5.80;99.90
18456;DHT22;9357;49.900;8.208;2024-02-28T00:49:51;5.80;99.90
18456;DHT22;9357;49.900;8.208;2024-02-28T00:51:25;5.90;99.90
18456;DHT22;9357;49.900;8.208;2024-02-28T00:52:57;5.80;99.90
18456;DHT22;9357;49.900;8.208;2024-02-28T00:54:29;5.80;99.90
18456;DHT22;9357;49.900;8.208;2024-02-28T00:56:01;5.80;99.90
18456;DHT22;9357;49.900;8.208;2024-02-28T00:57:34;5.80;99.90
18456;DHT22;9357;49.900;8.208;2024-02-28T00:59:07;5.80;99.90
18456;DHT22;9357;49.900;8.208;2024-02-28T01:00:42;5.80;99.90
18456;DHT22;9357;49.900;8.208;2024-02-28T01:02:15;5.80;99.90
18456;DHT22;9357;49.900;8.208;2024-02-28T01:03:47;5.80;99.90
18456;DHT22;9357;49.900;8.208;2024-02-28T01:05:20;5.70;99.90
18456;DHT22;9357;49.900;8.208;2024-02-28T01:06:54;5.70;99.90
18456;DHT22;9357;49.900;8.208;2024-02-28T01:08:26;5.70;99.90
18456;DHT22;9357;49.900;8.208;2024-02-28T01:09:59;5.70;99.90
18456;DHT22;9357;49.900;8.208;2024-02-28T01:11:32;5.70;99.90
18456;DHT22;9357;49.900;8.208;2024-02-28T01:13:05;5.70;99.90
18456;DHT22;9357;49.900;8.208;2024-02-28T01:14:36;5.60;99.90
18456;DHT22;9357;49.900;8.208;2024-02-28T01:16:09;5.60;99.90
18456;DHT22;9357;49.900;8.208;2024-02-28T01:17:41;5.60;99.90
18456;DHT22;9357;49.900;8.208;2024-02-28T01:19:15;5.50;99.90
18456;DHT22;9357;49.900;8.208;2024-02-28T01:20:47;5.50;99.90
18456;DHT22;9357;49.900;8.208;2024-02-28T01:22:23;5.50;99.90
18456;DHT22;9357;49.900;8.208;2024-02-28T01:23:56;5.50;99.90
18456;DHT22;9357;49.900;8.208;2024-02-28T01:25:28;5.50;99.90
18456;DHT22;9357;49.900;8.208;2024-02-28T01:27:01;5.40;99.90
18456;DHT22;9357;49.900;8.208;2024-02-28T01:28:34;5.40;99.90
18456;DHT22;9357;49.900;8.208;2024-02-28T01:30:07;5.40;99.90
18456;DHT22;9357;49.900;8.208;2024-02-28T01:31:40;5.40;99.90
18456;DHT22;9357;49.900;8.208;2024-02-28T01:33:11;5.40;99.90
18456;DHT22;9357;49.900;8.208;2024-02-28T01:34:45;5.40;99.90
18456;DHT22;9357;49.900;8.208;2024-02-28T01:36:17;5.30;99.90
18456;DHT22;9357;49.900;8.208;2024-02-28T01:37:51;5.30;99.90
18456;DHT22;9357;49.900;8.208;2024-02-28T01:39:23;5.30;99.90
18456;DHT22;9357;49.900;8.208;2024-02-28T01:40:56;5.30;99.90
18456;DHT22;9357;49.900;8.208;2024-02-28T01:42:28;5.30;99.90
18456;DHT22;9357;49.900;8.208;2024-02-28T01:44:01;5.30;99.90
18456;DHT22;9357;49.900;8.208;2024-02-28T01:45:33;5.30;99.90
18456;DHT22;9357;49.900;8.208;2024-02-28T01:47:07;5.20;99.90
18456;DHT22;9357;49.900;8.208;2024-02-28T01:48:38;5.20;99.90
18456;DHT22;9357;49.900;8.208;2024-02-28T01:50:11;5.20;99.90
18456;DHT22;9357;49.900;8.208;2024-02-28T01:51:44;5.20;99.90
18456;DHT22;9357;49.900;8.208;2024-02-28T01:53:18;5.20;99.90
18456;DHT22;9357;49.900;8.208;2024-02-28T01:54:52;5.10;99.90
18456;DHT22;9357;49.900;8.208;2024-02-28T01:56:25;5.10;99.90
18456;DHT22;9357;49.900;8.208;2024-02-28T01:57:58;5.10;99.90
18456;DHT22;9357;49.900;8.208;2024-02-28T01:59:31;5.10;99.90
18456;DHT22;9357;49.900;8.208;2024-02-28T02:01:03;5.00;99.90
18456;DHT22;9357;49.900;8.208;2024-02-28T02:02:38;5.00;99.90
18456;DHT22;9357;49.900;8.208;2024-02-28T02:04:10;5.00;99.90
18456;DHT22;9357;49.900;8.208;2024-02-28T02:05:44;5.00;99.90
18456;DHT22;9357;49.900;8.208;2024-02-28T02:07:16;5.00;99.90
18456;DHT22;9357;49.900;8.208;2024-02-28T02:08:50;5.00;99.90
18456;DHT22;9357;49.900;8.208;2024-02-28T02:10:22;5.00;99.90
18456;DHT22;9357;49.900;8.208;2024-02-28T02:11:55;5.00;99.90
18456;DHT22;9357;49.900;8.208;2024-02-28T02:13:27;5.00;99.90
18456;DHT22;9357;49.900;8.208;2024-02-28T02:14:59;4.90;99.90
18456;DHT22;9357;49.900;8.208;2024-02-28T02:16:31;5.00;99.90
18456;DHT22;9357;49.900;8.208;2024-02-28T02:18:04;5.00;99.90
18456;DHT22;9357;49.900;8.208;2024-02-28T02:19:37;4.90;99.90
18456;DHT22;9357;49.900;8.208;2024-02-28T02:21:11;4.90;99.90
18456;DHT22;9357;49.900;8.208;2024-02-28T02:22:46;4.90;99.90
18456;DHT22;9357;49.900;8.208;2024-02-28T02:24:18;4.90;99.90
18456;DHT22;9357;49.900;8.208;2024-02-28T02:25:51;4.90;99.90
18456;DHT22;9357;49.900;8.208;2024-02-28T02:27:24;4.90;99.90
18456;DHT22;9357;49.900;8.208;2024-02-28T02:28:57;4.90;99.90
18456;DHT22;9357;49.900;8.208;2024-02-28T02:30:29;4.80;99.90
18456;DHT22;9357;49.900;8.208;2024-02-28T02:32:02;4.80;99.90
18456;DHT22;9357;49.900;8.208;2024-02-28T02:33:33;4.90;99.90
18456;DHT22;9357;49.900;8.208;2024-02-28T02:35:07;4.70;99.90
18456;DHT22;9357;49.900;8.208;2024-02-28T02:36:40;4.80;99.90
18456;DHT22;9357;49.900;8.208;2024-02-28T02:38:13;4.80;99.90
18456;DHT22;9357;49.900;8.208;2024-02-28T02:39:46;4.70;99.90
18456;DHT22;9357;49.900;8.208;2024-02-28T02:41:18;4.70;99.90
18456;DHT22;9357;49.900;8.208;2024-02-28T02:42:51;4.70;99.90
18456;DHT22;9357;49.900;8.208;2024-02-28T02:44:22;4.70;99.90
18456;DHT22;9357;49.900;8.208;2024-02-28T02:45:55;4.70;99.90
18456;DHT22;9357;49.900;8.208;2024-02-28T02:47:27;4.70;99.90
18456;DHT22;9357;49.900;8.208;2024-02-28T02:49:02;4.60;99.90
18456;DHT22;9357;49.900;8.208;2024-02-28T02:50:33;4.60;99.90
18456;DHT22;9357;49.900;8.208;2024-02-28T02:52:06;4.60;99.90
18456;DHT22;9357;49.900;8.208;2024-02-28T02:53:39;4.60;99.90
18456;DHT22;9357;49.900;8.208;2024-02-28T02:55:12;4.50;99.90
18456;DHT22;9357;49.900;8.208;2024-02-28T02:56:44;4.60;99.90
18456;DHT22;9357;49.900;8.208;2024-02-28T02:58:17;4.60;99.90
18456;DHT22;9357;49.900;8.208;2024-02-28T02:59:49;4.50;99.90
18456;DHT22;9357;49.900;8.208;2024-02-28T03:01:21;4.50;99.90
18456;DHT22;9357;49.900;8.208;2024-02-28T03:02:53;4.50;99.90
18456;DHT22;9357;49.900;8.208;2024-02-28T03:04:26;4.40;99.90
18456;DHT22;9357;49.900;8.208;2024-02-28T03:05:58;4.40;99.90
18456;DHT22;9357;49.900;8.208;2024-02-28T03:07:31;4.30;99.90
18456;DHT22;9357;49.900;8.208;2024-02-28T03:09:05;4.30;99.90
18456;DHT22;9357;49.900;8.208;2024-02-28T03:10:39;4.30;99.90
18456;DHT22;9357;49.900;8.208;2024-02-28T03:12:11;4.30;99.90
18456;DHT22;9357;49.900;8.208;2024-02-28T03:13:44;4.20;99.90
18456;DHT22;9357;49.900;8.208;2024-02-28T03:15:15;4.10;99.90
18456;DHT22;9357;49.900;8.208;2024-02-28T03:16:48;4.20;99.90
18456;DHT22;9357;49.900;8.208;2024-02-28T03:18:20;4.20;99.90
18456;DHT22;9357;49.900;8.208;2024-02-28T03:19:53;4.20;99.90
18456;DHT22;9357;49.900;8.208;2024-02-28T03:21:25;4.20;99.90
18456;DHT22;9357;49.900;8.208;2024-02-28T03:22:58;4.20;99.90
18456;DHT22;9357;49.900;8.208;2024-02-28T03:24:33;4.20;99.90
18456;DHT22;9357;49.900;8.208;2024-02-28T03:26:06;4.20;99.90
18456;DHT22;9357;49.900;8.208;2024-02-28T03:27:39;4.20;99.90
18456;DHT22;9357;49.900;8.208;2024-02-28T03:29:11;4.10;99.90
18456;DHT22;9357;49.900;8.208;2024-02-28T03:30:44;4.10;99.90
18456;DHT22;9357;49.900;8.208;2024-02-28T03:32:16;4.10;99.90
18456;DHT22;9357;49.900;8.208;2024-02-28T03:33:49;4.00;99.90
18456;DHT22;9357;49.900;8.208;2024-02-28T03:35:21;4.00;99.90
18456;DHT22;9357;49.900;8.208;2024-02-28T03:36:53;4.10;99.90
18456;DHT22;9357;49.900;8.208;2024-02-28T03:38:25;4.10;99.90
18456;DHT22;9357;49.900;8.208;2024-02-28T03:39:59;4.10;99.90
18456;DHT22;9357;49.900;8.208;2024-02-28T03:41:31;4.10;99.90
18456;DHT22;9357;49.900;8.208;2024-02-28T03:43:04;4.10;99.90
18456;DHT22;9357;49.900;8.208;2024-02-28T03:44:36;4.10;99.90
18456;DHT22;9357;49.900;8.208;2024-02-28T03:46:09;4.10;99.90
18456;DHT22;9357;49.900;8.208;2024-02-28T03:47:41;4.10;99.90
18456;DHT22;9357;49.900;8.208;2024-02-28T03:49:14;4.10;99.90
18456;DHT22;9357;49.900;8.208;2024-02-28T03:50:45;4.10;99.90
18456;DHT22;9357;49.900;8.208;2024-02-28T03:52:18;4.10;99.90
18456;DHT22;9357;49.900;8.208;2024-02-28T03:53:50;4.10;99.90
18456;DHT22;9357;49.900;8.208;2024-02-28T03:55:24;4.10;99.90
18456;DHT22;9357;49.900;8.208;2024-02-28T03:56:56;4.10;99.90
18456;DHT22;9357;49.900;8.208;2024-02-28T03:58:30;4.10;99.90
18456;DHT22;9357;49.900;8.208;2024-02-28T04:00:02;4.00;99.90
18456;DHT22;9357;49.900;8.208;2024-02-28T04:01:36;4.00;99.90
18456;DHT22;9357;49.900;8.208;2024-02-28T04:03:09;4.00;99.90
18456;DHT22;9357;49.900;8.208;2024-02-28T04:04:41;4.00;99.90
18456;DHT22;9357;49.900;8.208;2024-02-28T04:06:14;4.00;99.90
18456;DHT22;9357;49.900;8.208;2024-02-28T04:07:46;4.00;99.90
18456;DHT22;9357;49.900;8.208;2024-02-28T04:09:19;4.00;99.90
18456;DHT22;9357;49.900;8.208;2024-02-28T04:10:53;3.90;99.90
18456;DHT22;9357;49.900;8.208;2024-02-28T04:12:26;3.90;99.90
18456;DHT22;9357;49.900;8.208;2024-02-28T04:13:58;3.90;99.90
18456;DHT22;9357;49.900;8.208;2024-02-28T04:15:30;3.90;99.90
18456;DHT22;9357;49.900;8.208;2024-02-28T04:17:02;3.90;99.90
18456;DHT22;9357;49.900;8.208;2024-02-28T04:18:35;3.90;99.90
18456;DHT22;9357;49.900;8.208;2024-02-28T04:20:09;3.90;99.90
18456;DHT22;9357;49.900;8.208;2024-02-28T04:21:41;3.90;99.90
18456;DHT22;9357;49.900;8.208;2024-02-28T04:23:14;3.90;99.90
18456;DHT22;9357;49.900;8.208;2024-02-28T04:24:46;3.80;99.90
18456;DHT22;9357;49.900;8.208;2024-02-28T04:26:20;3.80;99.90
18456;DHT22;9357;49.900;8.208;2024-02-28T04:27:52;3.80;99.90
18456;DHT22;9357;49.900;8.208;2024-02-28T04:29:24;3.80;99.90
18456;DHT22;9357;49.900;8.208;2024-02-28T04:30:56;3.80;99.90
18456;DHT22;9357;49.900;8.208;2024-02-28T04:32:29;3.80;99.90
18456;DHT22;9357;49.900;8.208;2024-02-28T04:34:01;3.70;99.90
18456;DHT22;9357;49.900;8.208;2024-02-28T04:35:34;3.70;99.90
18456;DHT22;9357;49.900;8.208;2024-02-28T04:37:06;3.70;99.90
18456;DHT22;9357;49.900;8.208;2024-02-28T04:38:39;3.70;99.90
18456;DHT22;9357;49.900;8.208;2024-02-28T04:40:11;3.80;99.90
18456;DHT22;9357;49.900;8.208;2024-02-28T04:41:46;3.80;99.90
18456;DHT22;9357;49.900;8.208;2024-02-28T04:43:18;3.80;99.90
18456;DHT22;9357;49.900;8.208;2024-02-28T04:44:50;3.70;99.90
18456;DHT22;9357;49.900;8.208;2024-02-28T04:46:22;3.70;99.90
18456;DHT22;9357;49.900;8.208;2024-02-28T04:47:55;3.70;99.90
18456;DHT22;9357;49.900;8.208;2024-02-28T04:49:28;3.70;99.90
18456;DHT22;9357;49.900;8.208;2024-02-28T04:51:01;3.60;99.90
18456;DHT22;9357;49.900;8.208;2024-02-28T04:52:33;3.60;99.90
18456;DHT22;9357;49.900;8.208;2024-02-28T04:54:06;3.60;99.90
18456;DHT22;9357;49.900;8.208;2024-02-28T04:55:38;3.60;99.90
18456;DHT22;9357;49.900;8.208;2024-02-28T04:57:12;3.60;99.90
18456;DHT22;9357;49.900;8.208;2024-02-28T04:58:44;3.60;99.90
18456;DHT22;9357;49.900;8.208;2024-02-28T05:00:17;3.60;99.90
18456;DHT22;9357;49.900;8.208;2024-02-28T05:01:49;3.60;99.90
18456;DHT22;9357;49.900;8.208;2024-02-28T05:03:22;3.50;99.90
18456;DHT22;9357;49.900;8.208;2024-02-28T05:04:56;3.50;99.90
18456;DHT22;9357;49.900;8.208;2024-02-28T05:06:29;3.60;99.90
18456;DHT22;9357;49.900;8.208;2024-02-28T05:08:01;3.60;99.90
18456;DHT22;9357;49.900;8.208;2024-02-28T05:09:34;3.60;99.90
18456;DHT22;9357;49.900;8.208;2024-02-28T05:11:06;3.60;99.90
18456;DHT22;9357;49.900;8.208;2024-02-28T05:12:41;3.50;99.90
18456;DHT22;9357;49.900;8.208;2024-02-28T05:14:13;3.50;99.90
18456;DHT22;9357;49.900;8.208;2024-02-28T05:15:45;3.50;99.90
18456;DHT22;9357;49.900;8.208;2024-02-28T05:17:17;3.50;99.90
18456;DHT22;9357;49.900;8.208;2024-02-28T05:18:50;3.50;99.90
18456;DHT22;9357;49.900;8.208;2024-02-28T05:20:23;3.40;99.90
18456;DHT22;9357;49.900;8.208;2024-02-28T05:21:55;3.40;99.90
18456;DHT22;9357;49.900;8.208;2024-02-28T05:23:27;3.40;99.90
18456;DHT22;9357;49.900;8.208;2024-02-28T05:24:59;3.40;99.90
18456;DHT22;9357;49.900;8.208;2024-02-28T05:26:34;3.60;99.90
18456;DHT22;9357;49.900;8.208;2024-02-28T05:28:07;3.50;99.90
18456;DHT22;9357;49.900;8.208;2024-02-28T05:29:40;3.40;99.90
18456;DHT22;9357;49.900;8.208;2024-02-28T05:31:21;3.30;99.90
18456;DHT22;9357;49.900;8.208;2024-02-28T05:32:54;3.30;99.90
18456;DHT22;9357;49.900;8.208;2024-02-28T05:34:26;3.20;99.90
18456;DHT22;9357;49.900;8.208;2024-02-28T05:35:59;3.40;99.90
18456;DHT22;9357;49.900;8.208;2024-02-28T05:37:31;3.20;99.90
18456;DHT22;9357;49.900;8.208;2024-02-28T05:39:04;3.20;99.90
18456;DHT22;9357;49.900;8.208;2024-02-28T05:40:37;3.20;99.90
18456;DHT22;9357;49.900;8.208;2024-02-28T05:42:10;3.20;99.90
18456;DHT22;9357;49.900;8.208;2024-02-28T05:43:44;3.20;99.90
18456;DHT22;9357;49.900;8.208;2024-02-28T05:45:17;3.20;99.90
18456;DHT22;9357;49.900;8.208;2024-02-28T05:46:49;3.20;99.90
18456;DHT22;9357;49.900;8.208;2024-02-28T05:48:21;3.30;99.90
18456;DHT22;9357;49.900;8.208;2024-02-28T05:49:53;3.30;99.90
18456;DHT22;9357;49.900;8.208;2024-02-28T05:51:27;3.30;99.90
18456;DHT22;9357;49.900;8.208;2024-02-28T05:52:59;3.30;99.90
18456;DHT22;9357;49.900;8.208;2024-02-28T05:54:32;3.30;99.90
18456;DHT22;9357;49.900;8.208;2024-02-28T05:56:06;3.20;99.90
18456;DHT22;9357;49.900;8.208;2024-02-28T05:57:44;3.20;99.90
18456;DHT22;9357;49.900;8.208;2024-02-28T05:59:17;3.20;99.90
18456;DHT22;9357;49.900;8.208;2024-02-28T06:00:50;3.10;99.90
18456;DHT22;9357;49.900;8.208;2024-02-28T06:02:22;3.10;99.90
18456;DHT22;9357;49.900;8.208;2024-02-28T06:03:55;3.00;99.90
18456;DHT22;9357;49.900;8.208;2024-02-28T06:05:28;3.10;99.90
18456;DHT22;9357;49.900;8.208;2024-02-28T06:07:00;3.10;99.90
18456;DHT22;9357;49.900;8.208;2024-02-28T06:08:33;3.10;99.90
18456;DHT22;9357;49.900;8.208;2024-02-28T06:10:06;3.10;99.90
18456;DHT22;9357;49.900;8.208;2024-02-28T06:11:39;3.10;99.90
18456;DHT22;9357;49.900;8.208;2024-02-28T06:13:11;3.20;99.90
18456;DHT22;9357;49.900;8.208;2024-02-28T06:14:46;3.10;99.90
18456;DHT22;9357;49.900;8.208;2024-02-28T06:16:17;3.10;99.90
18456;DHT22;9357;49.900;8.208;2024-02-28T06:17:50;3.10;99.90
18456;DHT22;9357;49.900;8.208;2024-02-28T06:19:22;3.10;99.90
18456;DHT22;9357;49.900;8.208;2024-02-28T06:20:55;3.00;99.90
18456;DHT22;9357;49.900;8.208;2024-02-28T06:22:27;3.00;99.90
18456;DHT22;9357;49.900;8.208;2024-02-28T06:24:00;3.00;99.90
18456;DHT22;9357;49.900;8.208;2024-02-28T06:25:32;3.00;99.90
18456;DHT22;9357;49.900;8.208;2024-02-28T06:27:05;3.00;99.90
18456;DHT22;9357;49.900;8.208;2024-02-28T06:28:37;2.90;99.90
18456;DHT22;9357;49.900;8.208;2024-02-28T06:30:12;2.90;99.90
18456;DHT22;9357;49.900;8.208;2024-02-28T06:31:44;3.00;99.90
18456;DHT22;9357;49.900;8.208;2024-02-28T06:33:17;2.90;99.90
18456;DHT22;9357;49.900;8.208;2024-02-28T06:34:49;3.00;99.90
18456;DHT22;9357;49.900;8.208;2024-02-28T06:36:21;2.90;99.90
18456;DHT22;9357;49.900;8.208;2024-02-28T06:37:53;2.90;99.90
18456;DHT22;9357;49.900;8.208;2024-02-28T06:39:26;2.90;99.90
18456;DHT22;9357;49.900;8.208;2024-02-28T06:40:58;3.00;99.90
18456;DHT22;9357;49.900;8.208;2024-02-28T06:42:30;2.90;99.90
18456;DHT22;9357;49.900;8.208;2024-02-28T06:44:03;2.90;99.90
18456;DHT22;9357;49.900;8.208;2024-02-28T06:45:37;2.90;99.90
18456;DHT22;9357;49.900;8.208;2024-02-28T06:47:09;3.00;99.90
18456;DHT22;9357;49.900;8.208;2024-02-28T06:48:42;3.00;99.90
18456;DHT22;9357;49.900;8.208;2024-02-28T06:50:14;3.00;99.90
18456;DHT22;9357;49.900;8.208;2024-02-28T06:51:47;3.10;99.90
18456;DHT22;9357;49.900;8.208;2024-02-28T06:53:19;3.10;99.90
18456;DHT22;9357;49.900;8.208;2024-02-28T06:54:51;3.10;99.90
18456;DHT22;9357;49.900;8.208;2024-02-28T06:56:24;3.10;99.90
18456;DHT22;9357;49.900;8.208;2024-02-28T06:57:56;3.10;99.90
18456;DHT22;9357;49.900;8.208;2024-02-28T06:59:29;3.10;99.90
18456;DHT22;9357;49.900;8.208;2024-02-28T07:01:03;3.10;99.90
18456;DHT22;9357;49.900;8.208;2024-02-28T07:02:36;3.10;99.90
18456;DHT22;9357;49.900;8.208;2024-02-28T07:04:08;3.20;99.90
18456;DHT22;9357;49.900;8.208;2024-02-28T07:05:41;3.20;99.90
18456;DHT22;9357;49.900;8.208;2024-02-28T07:07:13;3.30;99.90
18456;DHT22;9357;49.900;8.208;2024-02-28T07:08:46;3.30;99.90
18456;DHT22;9357;49.900;8.208;2024-02-28T07:10:18;3.30;99.90
18456;DHT22;9357;49.900;8.208;2024-02-28T07:11:58;3.40;99.90
18456;DHT22;9357;49.900;8.208;2024-02-28T07:13:30;3.40;99.90
18456;DHT22;9357;49.900;8.208;2024-02-28T07:15:05;3.50;99.90
18456;DHT22;9357;49.900;8.208;2024-02-28T07:16:39;3.50;99.90
18456;DHT22;9357;49.900;8.208;2024-02-28T07:18:12;3.50;99.90
18456;DHT22;9357;49.900;8.208;2024-02-28T07:19:45;3.50;99.90
18456;DHT22;9357;49.900;8.208;2024-02-28T07:21:17;3.50;99.90
18456;DHT22;9357;49.900;8.208;2024-02-28T07:22:51;3.50;99.90
18456;DHT22;9357;49.900;8.208;2024-02-28T07:24:23;3.50;99.90
18456;DHT22;9357;49.900;8.208;2024-02-28T07:25:55;3.60;99.90
18456;DHT22;9357;49.900;8.208;2024-02-28T07:27:36;3.60;99.90
18456;DHT22;9357;49.900;8.208;2024-02-28T07:29:08;3.70;99.90
18456;DHT22;9357;49.900;8.208;2024-02-28T07:30:41;3.70;99.90
18456;DHT22;9357;49.900;8.208;2024-02-28T07:32:15;3.80;99.90
18456;DHT22;9357;49.900;8.208;2024-02-28T07:33:48;3.80;99.90
18456;DHT22;9357;49.900;8.208;2024-02-28T07:35:20;3.90;99.90
18456;DHT22;9357;49.900;8.208;2024-02-28T07:36:55;4.00;99.90
18456;DHT22;9357;49.900;8.208;2024-02-28T07:38:27;4.00;99.90
18456;DHT22;9357;49.900;8.208;2024-02-28T07:40:00;4.00;99.90
18456;DHT22;9357;49.900;8.208;2024-02-28T07:41:32;4.10;99.90
18456;DHT22;9357;49.900;8.208;2024-02-28T07:43:05;4.10;99.90
18456;DHT22;9357;49.900;8.208;2024-02-28T07:44:36;4.10;99.90
18456;DHT22;9357;49.900;8.208;2024-02-28T07:46:10;4.20;99.90
18456;DHT22;9357;49.900;8.208;2024-02-28T07:47:43;4.20;99.90
18456;DHT22;9357;49.900;8.208;2024-02-28T07:49:16;4.30;99.90
18456;DHT22;9357;49.900;8.208;2024-02-28T07:50:48;4.30;99.90
18456;DHT22;9357;49.900;8.208;2024-02-28T07:52:21;4.40;99.90
18456;DHT22;9357;49.900;8.208;2024-02-28T07:53:53;4.50;99.90
18456;DHT22;9357;49.900;8.208;2024-02-28T07:55:25;4.50;99.90
18456;DHT22;9357;49.900;8.208;2024-02-28T07:56:58;4.60;99.90
18456;DHT22;9357;49.900;8.208;2024-02-28T07:58:30;4.70;99.90
18456;DHT22;9357;49.900;8.208;2024-02-28T08:00:03;4.70;99.90
18456;DHT22;9357;49.900;8.208;2024-02-28T08:01:36;4.80;99.90
18456;DHT22;9357;49.900;8.208;2024-02-28T08:03:13;5.00;99.90
18456;DHT22;9357;49.900;8.208;2024-02-28T08:04:44;5.20;99.90
18456;DHT22;9357;49.900;8.208;2024-02-28T08:06:17;5.40;99.90
18456;DHT22;9357;49.900;8.208;2024-02-28T08:07:49;5.60;99.90
18456;DHT22;9357;49.900;8.208;2024-02-28T08:09:22;5.90;99.90
18456;DHT22;9357;49.900;8.208;2024-02-28T08:10:55;6.10;99.90
18456;DHT22;9357;49.900;8.208;2024-02-28T08:12:27;6.50;99.90
18456;DHT22;9357;49.900;8.208;2024-02-28T08:13:59;6.80;99.90
18456;DHT22;9357;49.900;8.208;2024-02-28T08:15:31;7.10;99.90
18456;DHT22;9357;49.900;8.208;2024-02-28T08:17:04;7.40;99.90
18456;DHT22;9357;49.900;8.208;2024-02-28T08:18:37;7.70;99.90
18456;DHT22;9357;49.900;8.208;2024-02-28T08:20:11;8.00;99.90
18456;DHT22;9357;49.900;8.208;2024-02-28T08:21:44;8.30;99.90
18456;DHT22;9357;49.900;8.208;2024-02-28T08:23:16;8.60;99.90
18456;DHT22;9357;49.900;8.208;2024-02-28T08:24:51;8.80;99.90
18456;DHT22;9357;49.900;8.208;2024-02-28T08:26:23;9.10;99.90
18456;DHT22;9357;49.900;8.208;2024-02-28T08:27:56;9.30;99.90
18456;DHT22;9357;49.900;8.208;2024-02-28T08:29:28;9.40;99.90
18456;DHT22;9357;49.900;8.208;2024-02-28T08:31:00;9.40;99.90
18456;DHT22;9357;49.900;8.208;2024-02-28T08:32:33;9.40;99.90
18456;DHT22;9357;49.900;8.208;2024-02-28T08:34:07;9.50;99.90
18456;DHT22;9357;49.900;8.208;2024-02-28T08:35:39;9.80;99.90
18456;DHT22;9357;49.900;8.208;2024-02-28T08:37:12;9.90;99.90
18456;DHT22;9357;49.900;8.208;2024-02-28T08:38:43;10.20;99.90
18456;DHT22;9357;49.900;8.208;2024-02-28T08:40:16;10.30;99.90
18456;DHT22;9357;49.900;8.208;2024-02-28T08:41:49;10.50;99.90
18456;DHT22;9357;49.900;8.208;2024-02-28T08:43:27;10.70;99.90
18456;DHT22;9357;49.900;8.208;2024-02-28T08:44:59;10.90;99.90
18456;DHT22;9357;49.900;8.208;2024-02-28T08:46:32;11.10;99.90
18456;DHT22;9357;49.900;8.208;2024-02-28T08:48:06;11.30;99.90
18456;DHT22;9357;49.900;8.208;2024-02-28T08:49:40;11.50;99.90
18456;DHT22;9357;49.900;8.208;2024-02-28T08:51:12;11.70;99.90
18456;DHT22;9357;49.900;8.208;2024-02-28T08:52:44;11.90;99.90
18456;DHT22;9357;49.900;8.208;2024-02-28T08:54:17;11.90;99.90
18456;DHT22;9357;49.900;8.208;2024-02-28T08:55:49;11.90;99.90
18456;DHT22;9357;49.900;8.208;2024-02-28T08:57:22;11.70;99.90
18456;DHT22;9357;49.900;8.208;2024-02-28T08:58:55;11.60;99.90
18456;DHT22;9357;49.900;8.208;2024-02-28T09:00:28;11.60;99.90
18456;DHT22;9357;49.900;8.208;2024-02-28T09:01:59;11.60;99.90
18456;DHT22;9357;49.900;8.208;2024-02-28T09:03:32;11.70;99.90
18456;DHT22;9357;49.900;8.208;2024-02-28T09:05:07;11.80;99.90
18456;DHT22;9357;49.900;8.208;2024-02-28T09:06:41;11.90;99.90
18456;DHT22;9357;49.900;8.208;2024-02-28T09:08:13;12.00;99.90
18456;DHT22;9357;49.900;8.208;2024-02-28T09:09:46;12.20;99.90
18456;DHT22;9357;49.900;8.208;2024-02-28T09:11:19;12.40;99.90
18456;DHT22;9357;49.900;8.208;2024-02-28T09:12:51;12.50;99.90
18456;DHT22;9357;49.900;8.208;2024-02-28T09:14:24;12.70;99.90
18456;DHT22;9357;49.900;8.208;2024-02-28T09:15:56;12.80;99.90
18456;DHT22;9357;49.900;8.208;2024-02-28T09:17:29;12.90;99.90
18456;DHT22;9357;49.900;8.208;2024-02-28T09:19:04;13.10;99.90
18456;DHT22;9357;49.900;8.208;2024-02-28T09:20:38;13.30;99.90
18456;DHT22;9357;49.900;8.208;2024-02-28T09:22:10;13.40;99.90
18456;DHT22;9357;49.900;8.208;2024-02-28T09:23:43;13.60;99.90
18456;DHT22;9357;49.900;8.208;2024-02-28T09:25:14;13.70;99.90
18456;DHT22;9357;49.900;8.208;2024-02-28T09:26:49;13.70;99.90
18456;DHT22;9357;49.900;8.208;2024-02-28T09:28:21;13.80;99.90
18456;DHT22;9357;49.900;8.208;2024-02-28T09:29:54;13.90;99.90
18456;DHT22;9357;49.900;8.208;2024-02-28T09:31:25;14.10;99.90
18456;DHT22;9357;49.900;8.208;2024-02-28T09:32:58;14.20;99.90
18456;DHT22;9357;49.900;8.208;2024-02-28T09:34:30;14.30;99.90
18456;DHT22;9357;49.900;8.208;2024-02-28T09:36:05;14.30;99.90
18456;DHT22;9357;49.900;8.208;2024-02-28T09:37:38;14.40;99.90
18456;DHT22;9357;49.900;8.208;2024-02-28T09:39:09;14.50;99.90
18456;DHT22;9357;49.900;8.208;2024-02-28T09:40:45;14.70;99.90
18456;DHT22;9357;49.900;8.208;2024-02-28T09:42:18;14.80;99.90
18456;DHT22;9357;49.900;8.208;2024-02-28T09:43:52;14.80;99.90
18456;DHT22;9357;49.900;8.208;2024-02-28T09:45:24;15.00;99.90
18456;DHT22;9357;49.900;8.208;2024-02-28T09:46:57;15.10;99.90
18456;DHT22;9357;49.900;8.208;2024-02-28T09:48:29;15.30;99.90
18456;DHT22;9357;49.900;8.208;2024-02-28T09:50:03;15.40;99.90
18456;DHT22;9357;49.900;8.208;2024-02-28T09:51:37;15.50;99.90
18456;DHT22;9357;49.900;8.208;2024-02-28T09:53:09;15.50;99.90
18456;DHT22;9357;49.900;8.208;2024-02-28T09:54:42;15.50;99.90
18456;DHT22;9357;49.900;8.208;2024-02-28T09:56:16;15.50;99.90
18456;DHT22;9357;49.900;8.208;2024-02-28T09:57:48;15.60;99.90
18456;DHT22;9357;49.900;8.208;2024-02-28T09:59:23;15.70;99.90
18456;DHT22;9357;49.900;8.208;2024-02-28T10:01:07;15.70;99.90
18456;DHT22;9357;49.900;8.208;2024-02-28T10:02:43;15.70;99.90
18456;DHT22;9357;49.900;8.208;2024-02-28T10:04:17;15.70;99.90